sensor_id;sensor_type;location;lat;lon;timestamp;temperature;humidity
2931;DHT22;1475;51.454;7.150;2022-07-18T00:00:31;18.70;99.90
2931;DHT22;1475;51.454;7.150;2022-07-18T00:02:57;18.70;99.90
2931;DHT22;1475;51.454;7.150;2022-07-18T00:05:24;18.60;99.90
2931;DHT22;1475;51.454;7.150;2022-07-18T00:07:51;18.60;99.90
2931;DHT22;1475;51.454;7.150;2022-07-18T00:10:18;18.50;99.90
2931;DHT22;1475;51.454;7.150;2022-07-18T00:12:45;18.50;99.90
2931;DHT22;1475;51.454;7.150;2022-07-18T00:15:11;18.40;99.90
2931;DHT22;1475;51.454;7.150;2022-07-18T00:17:40;18.40;99.90
2931;DHT22;1475;51.454;7.150;2022-07-18T00:20:09;18.30;99.90
2931;DHT22;1475;51.454;7.150;2022-07-18T00:22:36;18.30;99.90
2931;DHT22;1475;51.454;7.150;2022-07-18T00:25:04;18.20;99.90
2931;DHT22;1475;51.454;7.150;2022-07-18T00:27:31;18.10;99.90
2931;DHT22;1475;51.454;7.150;2022-07-18T00:29:58;18.10;99.90
2931;DHT22;1475;51.454;7.150;2022-07-18T00:32:24;18.10;99.90
2931;DHT22;1475;51.454;7.150;2022-07-18T00:34:52;18.00;99.90
2931;DHT22;1475;51.454;7.150;2022-07-18T00:37:19;17.90;99.90
2931;DHT22;1475;51.454;7.150;2022-07-18T00:39:46;17.80;99.90
2931;DHT22;1475;51.454;7.150;2022-07-18T00:42:13;17.70;99.90
2931;DHT22;1475;51.454;7.150;2022-07-18T00:44:39;17.70;99.90
2931;DHT22;1475;51.454;7.150;2022-07-18T00:47:06;17.60;99.90
2931;DHT22;1475;51.454;7.150;2022-07-18T00:49:33;17.60;99.90
2931;DHT22;1475;51.454;7.150;2022-07-18T00:52:01;17.50;99.90
2931;DHT22;1475;51.454;7.150;2022-07-18T00:54:29;17.60;99.90
2931;DHT22;1475;51.454;7.150;2022-07-18T00:56:56;17.50;99.90
2931;DHT22;1475;51.454;7.150;2022-07-18T00:59:24;17.50;99.90
2931;DHT22;1475;51.454;7.150;2022-07-18T01:02:11;17.50;99.90
2931;DHT22;1475;51.454;7.150;2022-07-18T01:04:37;17.40;99.90
2931;DHT22;1475;51.454;7.150;2022-07-18T01:07:05;17.40;99.90
2931;DHT22;1475;51.454;7.150;2022-07-18T01:09:32;17.40;99.90
2931;DHT22;1475;51.454;7.150;2022-07-18T01:12:00;17.30;99.90
2931;DHT22;1475;51.454;7.150;2022-07-18T01:14:27;17.20;99.90
2931;DHT22;1475;51.454;7.150;2022-07-18T01:16:54;17.10;99.90
2931;DHT22;1475;51.454;7.150;2022-07-18T01:19:20;17.10;99.90
2931;DHT22;1475;51.454;7.150;2022-07-18T01:21:48;17.10;99.90
2931;DHT22;1475;51.454;7.150;2022-07-18T01:24:15;17.00;99.90
2931;DHT22;1475;51.454;7.150;2022-07-18T01:26:42;17.00;99.90
2931;DHT22;1475;51.454;7.150;2022-07-18T01:29:09;16.90;99.90
2931;DHT22;1475;51.454;7.150;2022-07-18T01:31:36;16.90;99.90
2931;DHT22;1475;51.454;7.150;2022-07-18T01:34:02;16.80;99.90
2931;DHT22;1475;51.454;7.150;2022-07-18T01:36:29;16.80;99.90
2931;DHT22;1475;51.454;7.150;2022-07-18T01:38:57;16.80;99.90
2931;DHT22;1475;51.454;7.150;2022-07-18T01:41:24;16.70;99.90
2931;DHT22;1475;51.454;7.150;2022-07-18T01:43:51;16.60;99.90
2931;DHT22;1475;51.454;7.150;2022-07-18T01:46:17;16.60;99.90
2931;DHT22;1475;51.454;7.150;2022-07-18T01:48:44;16.50;99.90
2931;DHT22;1475;51.454;7.150;2022-07-18T01:51:11;16.50;99.90
2931;DHT22;1475;51.454;7.150;2022-07-18T01:53:39;16.40;99.90
2931;DHT22;1475;51.454;7.150;2022-07-18T01:56:07;16.40;99.90
2931;DHT22;1475;51.454;7.150;2022-07-18T01:58:34;16.30;99.90
2931;DHT22;1475;51.454;7.150;2022-07-18T02:01:02;16.30;99.90
2931;DHT22;1475;51.454;7.150;2022-07-18T02:03:29;16.20;99.90
2931;DHT22;1475;51.454;7.150;2022-07-18T02:05:55;16.20;99.90
2931;DHT22;1475;51.454;7.150;2022-07-18T02:08:22;16.20;99.90
2931;DHT22;1475;51.454;7.150;2022-07-18T02:10:49;16.20;99.90
2931;DHT22;1475;51.454;7.150;2022-07-18T02:13:17;16.10;99.90
2931;DHT22;1475;51.454;7.150;2022-07-18T02:15:45;16.10;99.90
2931;DHT22;1475;51.454;7.150;2022-07-18T02:18:12;16.10;99.90
2931;DHT22;1475;51.454;7.150;2022-07-18T02:20:39;16.00;99.90
2931;DHT22;1475;51.454;7.150;2022-07-18T02:23:06;16.00;99.90
2931;DHT22;1475;51.454;7.150;2022-07-18T02:25:33;16.00;99.90
2931;DHT22;1475;51.454;7.150;2022-07-18T02:28:00;16.00;99.90
2931;DHT22;1475;51.454;7.150;2022-07-18T02:30:28;16.00;99.90
2931;DHT22;1475;51.454;7.150;2022-07-18T02:32:55;16.00;99.90
2931;DHT22;1475;51.454;7.150;2022-07-18T02:35:21;15.90;99.90
2931;DHT22;1475;51.454;7.150;2022-07-18T02:37:48;15.90;99.90
2931;DHT22;1475;51.454;7.150;2022-07-18T02:40:15;15.90;99.90
2931;DHT22;1475;51.454;7.150;2022-07-18T02:42:41;15.80;99.90
2931;DHT22;1475;51.454;7.150;2022-07-18T02:45:10;15.80;99.90
2931;DHT22;1475;51.454;7.150;2022-07-18T02:47:38;15.80;99.90
2931;DHT22;1475;51.454;7.150;2022-07-18T02:50:06;15.80;99.90
2931;DHT22;1475;51.454;7.150;2022-07-18T02:52:33;15.80;99.90
2931;DHT22;1475;51.454;7.150;2022-07-18T02:54:59;15.70;99.90
2931;DHT22;1475;51.454;7.150;2022-07-18T02:57:26;15.70;99.90
2931;DHT22;1475;51.454;7.150;2022-07-18T02:59:53;15.70;99.90
2931;DHT22;1475;51.454;7.150;2022-07-18T03:02:20;15.60;99.90
2931;DHT22;1475;51.454;7.150;2022-07-18T03:04:48;15.60;99.90
2931;DHT22;1475;51.454;7.150;2022-07-18T03:07:15;15.60;99.90
2931;DHT22;1475;51.454;7.150;2022-07-18T03:09:41;15.60;99.90
2931;DHT22;1475;51.454;7.150;2022-07-18T03:12:09;15.60;99.90
2931;DHT22;1475;51.454;7.150;2022-07-18T03:14:35;15.50;99.90
2931;DHT22;1475;51.454;7.150;2022-07-18T03:17:02;15.50;99.90
2931;DHT22;1475;51.454;7.150;2022-07-18T03:19:29;15.50;99.90
2931;DHT22;1475;51.454;7.150;2022-07-18T03:21:57;15.50;99.90
2931;DHT22;1475;51.454;7.150;2022-07-18T03:24:24;15.50;99.90
2931;DHT22;1475;51.454;7.150;2022-07-18T03:26:51;15.40;99.90
2931;DHT22;1475;51.454;7.150;2022-07-18T03:29:18;15.40;99.90
2931;DHT22;1475;51.454;7.150;2022-07-18T03:31:45;15.40;99.90
2931;DHT22;1475;51.454;7.150;2022-07-18T03:34:11;15.40;99.90
2931;DHT22;1475;51.454;7.150;2022-07-18T03:36:38;15.40;99.90
2931;DHT22;1475;51.454;7.150;2022-07-18T03:39:08;15.40;99.90
2931;DHT22;1475;51.454;7.150;2022-07-18T03:41:35;15.30;99.90
2931;DHT22;1475;51.454;7.150;2022-07-18T03:44:03;15.30;99.90
2931;DHT22;1475;51.454;7.150;2022-07-18T03:46:30;15.20;99.90
2931;DHT22;1475;51.454;7.150;2022-07-18T03:48:57;15.30;99.90
2931;DHT22;1475;51.454;7.150;2022-07-18T03:51:24;15.20;99.90
2931;DHT22;1475;51.454;7.150;2022-07-18T03:53:51;15.20;99.90
2931;DHT22;1475;51.454;7.150;2022-07-18T03:56:19;15.20;99.90
2931;DHT22;1475;51.454;7.150;2022-07-18T03:58:46;15.20;99.90
2931;DHT22;1475;51.454;7.150;2022-07-18T04:01:13;15.20;99.90
2931;DHT22;1475;51.454;7.150;2022-07-18T04:03:40;15.30;99.90
2931;DHT22;1475;51.454;7.150;2022-07-18T04:06:06;15.20;99.90
2931;DHT22;1475;51.454;7.150;2022-07-18T04:08:33;15.30;99.90
2931;DHT22;1475;51.454;7.150;2022-07-18T04:11:00;15.30;99.90
2931;DHT22;1475;51.454;7.150;2022-07-18T04:13:28;15.30;99.90
2931;DHT22;1475;51.454;7.150;2022-07-18T04:15:56;15.30;99.90
2931;DHT22;1475;51.454;7.150;2022-07-18T04:18:23;15.30;99.90
2931;DHT22;1475;51.454;7.150;2022-07-18T04:20:49;15.40;99.90
2931;DHT22;1475;51.454;7.150;2022-07-18T04:23:17;15.40;99.90
2931;DHT22;1475;51.454;7.150;2022-07-18T04:25:44;15.50;99.90
2931;DHT22;1475;51.454;7.150;2022-07-18T04:28:12;15.50;99.90
2931;DHT22;1475;51.454;7.150;2022-07-18T04:30:42;15.50;99.90
2931;DHT22;1475;51.454;7.150;2022-07-18T04:33:10;15.60;99.90
2931;DHT22;1475;51.454;7.150;2022-07-18T04:35:37;15.60;99.90
2931;DHT22;1475;51.454;7.150;2022-07-18T04:38:06;15.70;99.90
2931;DHT22;1475;51.454;7.150;2022-07-18T04:40:33;15.70;99.90
2931;DHT22;1475;51.454;7.150;2022-07-18T04:43:00;15.80;99.90
2931;DHT22;1475;51.454;7.150;2022-07-18T04:45:26;15.80;99.90
2931;DHT22;1475;51.454;7.150;2022-07-18T04:47:55;15.90;99.90
2931;DHT22;1475;51.454;7.150;2022-07-18T04:50:22;15.90;99.90
2931;DHT22;1475;51.454;7.150;2022-07-18T04:52:50;16.00;99.90
2931;DHT22;1475;51.454;7.150;2022-07-18T04:55:19;16.00;99.90
2931;DHT22;1475;51.454;7.150;2022-07-18T04:57:48;16.10;99.90
2931;DHT22;1475;51.454;7.150;2022-07-18T05:02:44;16.10;99.90
2931;DHT22;1475;51.454;7.150;2022-07-18T05:05:14;16.30;99.90
2931;DHT22;1475;51.454;7.150;2022-07-18T05:07:43;16.40;99.90
2931;DHT22;1475;51.454;7.150;2022-07-18T05:10:12;16.50;99.90
2931;DHT22;1475;51.454;7.150;2022-07-18T05:12:40;16.60;99.90
2931;DHT22;1475;51.454;7.150;2022-07-18T05:15:09;16.60;99.90
2931;DHT22;1475;51.454;7.150;2022-07-18T05:17:37;16.80;99.90
2931;DHT22;1475;51.454;7.150;2022-07-18T05:20:05;16.90;99.90
2931;DHT22;1475;51.454;7.150;2022-07-18T05:22:34;17.00;99.90
2931;DHT22;1475;51.454;7.150;2022-07-18T05:25:02;17.10;99.90
2931;DHT22;1475;51.454;7.150;2022-07-18T05:27:29;17.20;99.90
2931;DHT22;1475;51.454;7.150;2022-07-18T05:29:56;17.30;99.90
2931;DHT22;1475;51.454;7.150;2022-07-18T05:32:24;17.40;99.90
2931;DHT22;1475;51.454;7.150;2022-07-18T05:34:51;17.50;99.90
2931;DHT22;1475;51.454;7.150;2022-07-18T05:37:18;17.60;99.90
2931;DHT22;1475;51.454;7.150;2022-07-18T05:39:47;17.70;99.90
2931;DHT22;1475;51.454;7.150;2022-07-18T05:42:15;17.80;99.90
2931;DHT22;1475;51.454;7.150;2022-07-18T05:44:42;17.90;99.90
2931;DHT22;1475;51.454;7.150;2022-07-18T05:47:09;18.10;99.90
2931;DHT22;1475;51.454;7.150;2022-07-18T05:49:36;18.20;99.90
2931;DHT22;1475;51.454;7.150;2022-07-18T05:52:04;18.40;99.90
2931;DHT22;1475;51.454;7.150;2022-07-18T05:54:31;18.50;99.90
2931;DHT22;1475;51.454;7.150;2022-07-18T05:56:59;18.70;99.90
2931;DHT22;1475;51.454;7.150;2022-07-18T05:59:26;18.80;99.90
2931;DHT22;1475;51.454;7.150;2022-07-18T06:01:54;19.00;99.90
2931;DHT22;1475;51.454;7.150;2022-07-18T06:04:21;19.10;99.90
2931;DHT22;1475;51.454;7.150;2022-07-18T06:06:48;19.30;99.90
2931;DHT22;1475;51.454;7.150;2022-07-18T06:09:15;19.40;99.90
2931;DHT22;1475;51.454;7.150;2022-07-18T06:11:42;19.50;99.90
2931;DHT22;1475;51.454;7.150;2022-07-18T06:14:11;19.70;99.90
2931;DHT22;1475;51.454;7.150;2022-07-18T06:16:38;19.80;99.90
2931;DHT22;1475;51.454;7.150;2022-07-18T06:19:04;19.90;99.90
2931;DHT22;1475;51.454;7.150;2022-07-18T06:21:31;20.00;99.90
2931;DHT22;1475;51.454;7.150;2022-07-18T06:23:58;20.20;99.90
2931;DHT22;1475;51.454;7.150;2022-07-18T06:26:25;20.30;99.90
2931;DHT22;1475;51.454;7.150;2022-07-18T06:28:52;20.50;99.90
2931;DHT22;1475;51.454;7.150;2022-07-18T06:31:20;20.60;99.90
2931;DHT22;1475;51.454;7.150;2022-07-18T06:33:47;20.70;99.90
2931;DHT22;1475;51.454;7.150;2022-07-18T06:36:14;20.90;99.90
2931;DHT22;1475;51.454;7.150;2022-07-18T06:38:41;21.00;99.90
2931;DHT22;1475;51.454;7.150;2022-07-18T06:41:08;21.20;99.90
2931;DHT22;1475;51.454;7.150;2022-07-18T06:43:36;21.30;99.90
2931;DHT22;1475;51.454;7.150;2022-07-18T06:46:04;21.50;99.90
2931;DHT22;1475;51.454;7.150;2022-07-18T06:48:32;21.60;99.90
2931;DHT22;1475;51.454;7.150;2022-07-18T06:51:00;21.80;99.90
2931;DHT22;1475;51.454;7.150;2022-07-18T06:53:27;22.00;99.90
2931;DHT22;1475;51.454;7.150;2022-07-18T06:55:54;22.20;99.90
2931;DHT22;1475;51.454;7.150;2022-07-18T06:58:22;22.30;99.90
2931;DHT22;1475;51.454;7.150;2022-07-18T07:00:48;22.40;99.90
2931;DHT22;1475;51.454;7.150;2022-07-18T07:03:15;22.50;99.90
2931;DHT22;1475;51.454;7.150;2022-07-18T07:05:43;22.70;99.90
2931;DHT22;1475;51.454;7.150;2022-07-18T07:08:10;22.80;99.90
2931;DHT22;1475;51.454;7.150;2022-07-18T07:10:38;22.90;99.30
2931;DHT22;1475;51.454;7.150;2022-07-18T07:13:05;23.00;97.50
2931;DHT22;1475;51.454;7.150;2022-07-18T07:15:32;23.20;97.80
2931;DHT22;1475;51.454;7.150;2022-07-18T07:17:59;23.30;96.00
2931;DHT22;1475;51.454;7.150;2022-07-18T07:20:26;23.30;94.70
2931;DHT22;1475;51.454;7.150;2022-07-18T07:22:56;23.50;94.50
2931;DHT22;1475;51.454;7.150;2022-07-18T07:25:25;23.50;94.50
2931;DHT22;1475;51.454;7.150;2022-07-18T07:27:52;23.60;94.10
2931;DHT22;1475;51.454;7.150;2022-07-18T07:30:20;23.70;93.40
2931;DHT22;1475;51.454;7.150;2022-07-18T07:32:47;23.80;93.50
2931;DHT22;1475;51.454;7.150;2022-07-18T07:35:16;23.90;93.50
2931;DHT22;1475;51.454;7.150;2022-07-18T07:37:45;24.00;92.50
2931;DHT22;1475;51.454;7.150;2022-07-18T07:40:14;24.10;91.80
2931;DHT22;1475;51.454;7.150;2022-07-18T07:42:42;24.20;92.50
2931;DHT22;1475;51.454;7.150;2022-07-18T07:45:10;24.30;92.90
2931;DHT22;1475;51.454;7.150;2022-07-18T07:47:37;24.40;92.00
2931;DHT22;1475;51.454;7.150;2022-07-18T07:50:06;24.50;91.30
2931;DHT22;1475;51.454;7.150;2022-07-18T07:52:33;24.60;91.50
2931;DHT22;1475;51.454;7.150;2022-07-18T07:55:00;24.80;90.80
2931;DHT22;1475;51.454;7.150;2022-07-18T07:57:28;24.90;91.10
2931;DHT22;1475;51.454;7.150;2022-07-18T07:59:55;25.00;90.80
2931;DHT22;1475;51.454;7.150;2022-07-18T08:02:21;25.10;87.80
2931;DHT22;1475;51.454;7.150;2022-07-18T08:04:48;25.20;89.00
2931;DHT22;1475;51.454;7.150;2022-07-18T08:07:15;25.30;88.80
2931;DHT22;1475;51.454;7.150;2022-07-18T08:09:42;25.40;88.50
2931;DHT22;1475;51.454;7.150;2022-07-18T08:12:09;25.40;86.30
2931;DHT22;1475;51.454;7.150;2022-07-18T08:14:37;25.60;86.10
2931;DHT22;1475;51.454;7.150;2022-07-18T08:17:05;25.70;84.20
2931;DHT22;1475;51.454;7.150;2022-07-18T08:19:32;25.90;84.40
2931;DHT22;1475;51.454;7.150;2022-07-18T08:21:59;26.00;81.40
2931;DHT22;1475;51.454;7.150;2022-07-18T08:24:26;26.10;79.10
2931;DHT22;1475;51.454;7.150;2022-07-18T08:26:52;26.20;77.70
2931;DHT22;1475;51.454;7.150;2022-07-18T08:29:19;26.30;76.90
2931;DHT22;1475;51.454;7.150;2022-07-18T08:31:47;26.40;77.60
2931;DHT22;1475;51.454;7.150;2022-07-18T08:34:14;26.50;77.10
2931;DHT22;1475;51.454;7.150;2022-07-18T08:36:41;26.50;71.40
2931;DHT22;1475;51.454;7.150;2022-07-18T08:39:07;26.60;71.60
2931;DHT22;1475;51.454;7.150;2022-07-18T08:41:36;26.80;70.10
2931;DHT22;1475;51.454;7.150;2022-07-18T08:44:04;26.90;66.60
2931;DHT22;1475;51.454;7.150;2022-07-18T08:46:32;27.00;65.60
2931;DHT22;1475;51.454;7.150;2022-07-18T08:49:02;27.10;65.40
2931;DHT22;1475;51.454;7.150;2022-07-18T08:51:30;27.30;64.80
2931;DHT22;1475;51.454;7.150;2022-07-18T08:53:57;27.40;59.00
2931;DHT22;1475;51.454;7.150;2022-07-18T08:56:24;27.50;57.40
2931;DHT22;1475;51.454;7.150;2022-07-18T08:58:51;27.60;57.60
2931;DHT22;1475;51.454;7.150;2022-07-18T09:01:17;27.70;59.20
2931;DHT22;1475;51.454;7.150;2022-07-18T09:03:44;27.80;53.10
2931;DHT22;1475;51.454;7.150;2022-07-18T09:06:41;27.90;52.80
2931;DHT22;1475;51.454;7.150;2022-07-18T09:09:11;28.00;51.00
2931;DHT22;1475;51.454;7.150;2022-07-18T09:11:52;28.10;45.20
2931;DHT22;1475;51.454;7.150;2022-07-18T09:14:30;28.20;44.90
2931;DHT22;1475;51.454;7.150;2022-07-18T09:17:06;28.30;41.30
2931;DHT22;1475;51.454;7.150;2022-07-18T09:19:33;28.40;40.00
2931;DHT22;1475;51.454;7.150;2022-07-18T09:22:18;28.40;39.90
2931;DHT22;1475;51.454;7.150;2022-07-18T09:24:54;28.60;41.10
2931;DHT22;1475;51.454;7.150;2022-07-18T09:27:26;28.70;38.90
2931;DHT22;1475;51.454;7.150;2022-07-18T09:30:24;28.90;40.20
2931;DHT22;1475;51.454;7.150;2022-07-18T09:32:54;29.10;40.00
2931;DHT22;1475;51.454;7.150;2022-07-18T09:35:24;29.10;37.80
2931;DHT22;1475;51.454;7.150;2022-07-18T09:37:59;29.20;36.80
2931;DHT22;1475;51.454;7.150;2022-07-18T09:40:29;29.40;35.40
2931;DHT22;1475;51.454;7.150;2022-07-18T09:42:57;29.40;33.70
2931;DHT22;1475;51.454;7.150;2022-07-18T09:45:26;29.40;38.00
2931;DHT22;1475;51.454;7.150;2022-07-18T09:47:55;29.50;35.40
2931;DHT22;1475;51.454;7.150;2022-07-18T09:50:28;29.60;35.30
2931;DHT22;1475;51.454;7.150;2022-07-18T09:53:03;29.70;34.20
2931;DHT22;1475;51.454;7.150;2022-07-18T09:55:30;29.80;32.20
2931;DHT22;1475;51.454;7.150;2022-07-18T09:58:03;29.90;30.00
2931;DHT22;1475;51.454;7.150;2022-07-18T10:00:32;30.00;29.50
2931;DHT22;1475;51.454;7.150;2022-07-18T10:03:00;30.00;27.00
2931;DHT22;1475;51.454;7.150;2022-07-18T10:05:29;30.00;23.80
2931;DHT22;1475;51.454;7.150;2022-07-18T10:07:57;30.00;24.30
2931;DHT22;1475;51.454;7.150;2022-07-18T10:10:26;30.00;24.50
2931;DHT22;1475;51.454;7.150;2022-07-18T10:12:54;30.10;22.30
2931;DHT22;1475;51.454;7.150;2022-07-18T10:15:22;30.10;22.80
2931;DHT22;1475;51.454;7.150;2022-07-18T10:17:49;30.10;20.40
2931;DHT22;1475;51.454;7.150;2022-07-18T10:20:17;30.20;19.30
2931;DHT22;1475;51.454;7.150;2022-07-18T10:22:45;30.30;18.60
2931;DHT22;1475;51.454;7.150;2022-07-18T10:25:13;30.40;19.30
2931;DHT22;1475;51.454;7.150;2022-07-18T10:27:53;30.40;20.80
2931;DHT22;1475;51.454;7.150;2022-07-18T10:30:33;30.50;19.90
2931;DHT22;1475;51.454;7.150;2022-07-18T10:33:01;30.60;20.10
2931;DHT22;1475;51.454;7.150;2022-07-18T10:35:58;30.60;19.10
2931;DHT22;1475;51.454;7.150;2022-07-18T10:38:25;30.60;18.30
2931;DHT22;1475;51.454;7.150;2022-07-18T10:41:04;30.60;19.20
2931;DHT22;1475;51.454;7.150;2022-07-18T10:43:37;30.70;20.40
2931;DHT22;1475;51.454;7.150;2022-07-18T10:46:05;30.70;19.40
2931;DHT22;1475;51.454;7.150;2022-07-18T10:48:56;30.70;20.10
2931;DHT22;1475;51.454;7.150;2022-07-18T10:51:30;30.70;19.30
2931;DHT22;1475;51.454;7.150;2022-07-18T10:54:09;30.80;19.70
2931;DHT22;1475;51.454;7.150;2022-07-18T10:57:09;30.80;19.80
2931;DHT22;1475;51.454;7.150;2022-07-18T10:59:38;30.90;19.70
2931;DHT22;1475;51.454;7.150;2022-07-18T11:02:06;31.10;20.10
2931;DHT22;1475;51.454;7.150;2022-07-18T11:04:36;31.10;19.60
2931;DHT22;1475;51.454;7.150;2022-07-18T11:07:07;31.10;17.70
2931;DHT22;1475;51.454;7.150;2022-07-18T11:09:41;31.30;17.80
2931;DHT22;1475;51.454;7.150;2022-07-18T11:12:19;31.30;17.90
2931;DHT22;1475;51.454;7.150;2022-07-18T11:15:07;31.30;18.80
2931;DHT22;1475;51.454;7.150;2022-07-18T11:17:57;31.30;17.90
2931;DHT22;1475;51.454;7.150;2022-07-18T11:20:26;31.40;18.70
2931;DHT22;1475;51.454;7.150;2022-07-18T11:22:54;31.50;19.80
2931;DHT22;1475;51.454;7.150;2022-07-18T11:25:24;31.60;18.60
2931;DHT22;1475;51.454;7.150;2022-07-18T11:27:51;31.60;16.80
2931;DHT22;1475;51.454;7.150;2022-07-18T11:30:21;31.70;16.60
2931;DHT22;1475;51.454;7.150;2022-07-18T11:32:48;31.80;15.00
2931;DHT22;1475;51.454;7.150;2022-07-18T11:35:16;31.90;14.80
2931;DHT22;1475;51.454;7.150;2022-07-18T11:37:47;32.00;13.80
2931;DHT22;1475;51.454;7.150;2022-07-18T11:40:15;32.60;13.90
2931;DHT22;1475;51.454;7.150;2022-07-18T11:42:42;33.30;14.70
2931;DHT22;1475;51.454;7.150;2022-07-18T11:45:10;34.50;12.50
2931;DHT22;1475;51.454;7.150;2022-07-18T11:47:42;35.60;10.80
2931;DHT22;1475;51.454;7.150;2022-07-18T11:50:11;36.60;7.80
2931;DHT22;1475;51.454;7.150;2022-07-18T11:52:38;37.70;7.00
2931;DHT22;1475;51.454;7.150;2022-07-18T11:55:05;38.60;2.90
2931;DHT22;1475;51.454;7.150;2022-07-18T11:57:33;39.10;1.00
2931;DHT22;1475;51.454;7.150;2022-07-18T12:00:01;39.50;1.00
2931;DHT22;1475;51.454;7.150;2022-07-18T12:02:40;40.00;1.00
2931;DHT22;1475;51.454;7.150;2022-07-18T12:05:07;40.50;1.00
2931;DHT22;1475;51.454;7.150;2022-07-18T12:07:34;40.30;1.00
2931;DHT22;1475;51.454;7.150;2022-07-18T12:10:15;41.00;1.00
2931;DHT22;1475;51.454;7.150;2022-07-18T12:12:42;42.10;1.00
2931;DHT22;1475;51.454;7.150;2022-07-18T12:15:09;42.10;1.00
2931;DHT22;1475;51.454;7.150;2022-07-18T12:17:45;42.40;1.00
2931;DHT22;1475;51.454;7.150;2022-07-18T12:20:14;42.90;1.00
2931;DHT22;1475;51.454;7.150;2022-07-18T12:23:04;44.00;1.00
2931;DHT22;1475;51.454;7.150;2022-07-18T12:25:54;44.40;1.00
2931;DHT22;1475;51.454;7.150;2022-07-18T12:28:24;44.80;1.00
2931;DHT22;1475;51.454;7.150;2022-07-18T12:30:52;44.40;1.00
2931;DHT22;1475;51.454;7.150;2022-07-18T12:33:20;45.10;1.00
2931;DHT22;1475;51.454;7.150;2022-07-18T12:35:54;45.30;1.00
2931;DHT22;1475;51.454;7.150;2022-07-18T12:38:22;44.00;1.00
2931;DHT22;1475;51.454;7.150;2022-07-18T12:40:50;43.60;1.00
2931;DHT22;1475;51.454;7.150;2022-07-18T12:43:23;44.00;1.00
2931;DHT22;1475;51.454;7.150;2022-07-18T12:45:51;44.30;1.00
2931;DHT22;1475;51.454;7.150;2022-07-18T12:48:20;44.80;1.00
2931;DHT22;1475;51.454;7.150;2022-07-18T12:50:56;45.20;1.00
2931;DHT22;1475;51.454;7.150;2022-07-18T12:53:24;44.80;1.00
2931;DHT22;1475;51.454;7.150;2022-07-18T12:55:51;44.90;1.00
2931;DHT22;1475;51.454;7.150;2022-07-18T12:58:19;45.30;1.00
2931;DHT22;1475;51.454;7.150;2022-07-18T13:00:47;46.00;1.00
2931;DHT22;1475;51.454;7.150;2022-07-18T13:03:14;46.70;1.00
2931;DHT22;1475;51.454;7.150;2022-07-18T13:05:42;47.60;1.00
2931;DHT22;1475;51.454;7.150;2022-07-18T13:08:09;47.70;1.00
2931;DHT22;1475;51.454;7.150;2022-07-18T13:10:37;47.10;1.00
2931;DHT22;1475;51.454;7.150;2022-07-18T13:13:05;47.30;1.00
2931;DHT22;1475;51.454;7.150;2022-07-18T13:15:32;47.50;1.00
2931;DHT22;1475;51.454;7.150;2022-07-18T13:17:59;47.40;1.00
2931;DHT22;1475;51.454;7.150;2022-07-18T13:20:26;47.30;1.00
2931;DHT22;1475;51.454;7.150;2022-07-18T13:22:57;47.30;1.00
2931;DHT22;1475;51.454;7.150;2022-07-18T13:25:26;47.20;1.00
2931;DHT22;1475;51.454;7.150;2022-07-18T13:27:53;47.50;1.00
2931;DHT22;1475;51.454;7.150;2022-07-18T13:30:20;48.20;1.00
2931;DHT22;1475;51.454;7.150;2022-07-18T13:32:47;48.00;1.00
2931;DHT22;1475;51.454;7.150;2022-07-18T13:35:14;48.00;1.00
2931;DHT22;1475;51.454;7.150;2022-07-18T13:37:41;48.10;1.00
2931;DHT22;1475;51.454;7.150;2022-07-18T13:40:11;48.20;1.00
2931;DHT22;1475;51.454;7.150;2022-07-18T13:42:39;48.40;1.00
2931;DHT22;1475;51.454;7.150;2022-07-18T13:45:07;47.90;1.00
2931;DHT22;1475;51.454;7.150;2022-07-18T13:47:34;48.40;1.00
2931;DHT22;1475;51.454;7.150;2022-07-18T13:50:00;49.00;1.00
2931;DHT22;1475;51.454;7.150;2022-07-18T13:52:27;49.50;1.00
2931;DHT22;1475;51.454;7.150;2022-07-18T13:54:54;50.20;1.00
2931;DHT22;1475;51.454;7.150;2022-07-18T13:57:22;50.10;1.00
2931;DHT22;1475;51.454;7.150;2022-07-18T13:59:49;49.40;1.00
2931;DHT22;1475;51.454;7.150;2022-07-18T14:02:16;49.30;1.00
2931;DHT22;1475;51.454;7.150;2022-07-18T14:04:43;49.60;1.00
2931;DHT22;1475;51.454;7.150;2022-07-18T14:07:10;50.00;1.00
2931;DHT22;1475;51.454;7.150;2022-07-18T14:09:42;50.60;1.00
2931;DHT22;1475;51.454;7.150;2022-07-18T14:12:09;51.20;1.00
2931;DHT22;1475;51.454;7.150;2022-07-18T14:14:37;50.60;1.00
2931;DHT22;1475;51.454;7.150;2022-07-18T14:17:04;50.40;1.00
2931;DHT22;1475;51.454;7.150;2022-07-18T14:19:31;50.30;1.00
2931;DHT22;1475;51.454;7.150;2022-07-18T14:21:59;50.60;1.00
2931;DHT22;1475;51.454;7.150;2022-07-18T14:24:25;51.00;1.00
2931;DHT22;1475;51.454;7.150;2022-07-18T14:26:52;51.50;1.00
2931;DHT22;1475;51.454;7.150;2022-07-18T14:29:19;52.10;1.00
2931;DHT22;1475;51.454;7.150;2022-07-18T14:31:47;51.00;1.00
2931;DHT22;1475;51.454;7.150;2022-07-18T14:34:13;50.30;1.00
2931;DHT22;1475;51.454;7.150;2022-07-18T14:36:40;50.20;1.00
2931;DHT22;1475;51.454;7.150;2022-07-18T14:39:07;50.10;1.00
2931;DHT22;1475;51.454;7.150;2022-07-18T14:41:33;50.30;1.00
2931;DHT22;1475;51.454;7.150;2022-07-18T14:44:00;50.10;1.00
2931;DHT22;1475;51.454;7.150;2022-07-18T14:46:27;50.60;1.00
2931;DHT22;1475;51.454;7.150;2022-07-18T14:48:55;51.40;1.00
2931;DHT22;1475;51.454;7.150;2022-07-18T14:51:22;51.40;1.00
2931;DHT22;1475;51.454;7.150;2022-07-18T14:53:48;51.10;1.00
2931;DHT22;1475;51.454;7.150;2022-07-18T14:56:15;50.80;1.00
2931;DHT22;1475;51.454;7.150;2022-07-18T14:58:42;51.30;1.00
2931;DHT22;1475;51.454;7.150;2022-07-18T15:01:09;51.80;1.00
2931;DHT22;1475;51.454;7.150;2022-07-18T15:03:36;52.50;1.00
2931;DHT22;1475;51.454;7.150;2022-07-18T15:06:04;52.20;1.00
2931;DHT22;1475;51.454;7.150;2022-07-18T15:08:31;51.90;1.00
2931;DHT22;1475;51.454;7.150;2022-07-18T15:10:58;51.30;1.00
2931;DHT22;1475;51.454;7.150;2022-07-18T15:13:25;50.40;1.00
2931;DHT22;1475;51.454;7.150;2022-07-18T15:15:51;50.60;1.00
2931;DHT22;1475;51.454;7.150;2022-07-18T15:18:18;51.20;1.00
2931;DHT22;1475;51.454;7.150;2022-07-18T15:20:45;51.50;1.00
2931;DHT22;1475;51.454;7.150;2022-07-18T15:23:13;52.40;1.00
2931;DHT22;1475;51.454;7.150;2022-07-18T15:25:40;52.40;1.00
2931;DHT22;1475;51.454;7.150;2022-07-18T15:28:06;53.00;1.00
2931;DHT22;1475;51.454;7.150;2022-07-18T15:30:33;53.30;1.00
2931;DHT22;1475;51.454;7.150;2022-07-18T15:33:00;53.60;1.00
2931;DHT22;1475;51.454;7.150;2022-07-18T15:35:26;53.90;1.00
2931;DHT22;1475;51.454;7.150;2022-07-18T15:37:53;53.80;1.00
2931;DHT22;1475;51.454;7.150;2022-07-18T15:40:21;53.10;1.00
2931;DHT22;1475;51.454;7.150;2022-07-18T15:42:49;52.20;1.00
2931;DHT22;1475;51.454;7.150;2022-07-18T15:45:15;52.20;1.00
2931;DHT22;1475;51.454;7.150;2022-07-18T15:47:42;52.20;1.00
2931;DHT22;1475;51.454;7.150;2022-07-18T15:50:09;52.40;1.00
2931;DHT22;1475;51.454;7.150;2022-07-18T15:52:36;52.70;1.00
2931;DHT22;1475;51.454;7.150;2022-07-18T15:55:04;52.70;1.00
2931;DHT22;1475;51.454;7.150;2022-07-18T15:57:32;52.20;1.00
2931;DHT22;1475;51.454;7.150;2022-07-18T15:59:59;52.40;1.00
2931;DHT22;1475;51.454;7.150;2022-07-18T16:02:26;52.80;1.00
2931;DHT22;1475;51.454;7.150;2022-07-18T16:04:52;52.70;1.00
2931;DHT22;1475;51.454;7.150;2022-07-18T16:07:19;52.70;1.00
2931;DHT22;1475;51.454;7.150;2022-07-18T16:09:46;52.70;1.00
2931;DHT22;1475;51.454;7.150;2022-07-18T16:12:14;53.00;1.00
2931;DHT22;1475;51.454;7.150;2022-07-18T16:14:42;53.30;1.00
2931;DHT22;1475;51.454;7.150;2022-07-18T16:17:09;53.20;1.00